createdAt,value
2019-04-11T00:00:07.559Z,3.49
2019-04-11T00:01:08.044Z,3.42
2019-04-11T00:02:08.606Z,3.43
2019-04-11T00:03:07.525Z,3.44
2019-04-11T00:04:08.207Z,3.39
2019-04-11T00:05:07.508Z,3.20
2019-04-11T00:06:07.570Z,3.34
2019-04-11T00:07:07.840Z,3.21
2019-04-11T00:08:08.033Z,3.24
2019-04-11T00:09:08.172Z,3.10
2019-04-11T00:10:08.277Z,3.18
2019-04-11T00:11:07.432Z,3.23
2019-04-11T00:12:08.378Z,3.23
2019-04-11T00:13:18.240Z,3.09
2019-04-11T00:14:08.533Z,3.15
2019-04-11T00:15:08.525Z,3.20
2019-04-11T00:16:07.378Z,3.30
2019-04-11T00:17:07.846Z,3.07
2019-04-11T00:18:08.265Z,3.12
2019-04-11T00:19:07.398Z,3.09
2019-04-11T00:20:07.678Z,3.12
2019-04-11T00:21:07.317Z,3.00
2019-04-11T00:22:07.308Z,3.05
2019-04-11T00:23:08.133Z,2.95
2019-04-11T00:24:07.312Z,2.85
2019-04-11T00:25:07.395Z,2.95
2019-04-11T00:26:08.322Z,2.81
2019-04-11T00:27:07.251Z,2.76
2019-04-11T00:28:07.768Z,2.79
2019-04-11T00:29:07.230Z,2.81
2019-04-11T00:30:08.081Z,2.77
2019-04-11T00:31:08.363Z,2.70
2019-04-11T00:32:09.170Z,2.79
2019-04-11T00:33:07.874Z,2.69
2019-04-11T00:34:07.174Z,2.67
2019-04-11T00:35:07.278Z,2.70
2019-04-11T00:36:08.235Z,2.70
2019-04-11T00:37:07.137Z,2.76
2019-04-11T00:38:07.752Z,2.69
2019-04-11T00:39:07.677Z,2.70
2019-04-11T00:40:07.125Z,2.56
2019-04-11T00:41:07.983Z,2.70
2019-04-11T00:42:07.236Z,2.59
2019-04-11T00:43:07.347Z,2.58
2019-04-11T00:44:07.057Z,2.59
2019-04-11T00:45:07.564Z,2.56
2019-04-11T00:46:07.873Z,2.66
2019-04-11T00:47:07.024Z,2.61
2019-04-11T00:48:07.010Z,2.58
2019-04-11T00:49:08.042Z,2.59
2019-04-11T00:50:07.382Z,2.48
2019-04-11T00:51:07.739Z,2.55
2019-04-11T00:52:06.964Z,2.56
2019-04-11T00:53:06.958Z,2.52
2019-04-11T00:54:06.946Z,2.61
2019-04-11T00:55:07.210Z,2.53
2019-04-11T00:56:08.170Z,2.59
2019-04-11T00:57:06.909Z,2.55
2019-04-11T00:58:07.507Z,2.58
2019-04-11T00:59:07.947Z,2.48
2019-04-11T01:00:07.006Z,2.58
2019-04-11T01:01:07.184Z,2.53
2019-04-11T01:02:13.889Z,2.52
2019-04-11T01:03:06.842Z,2.56
2019-04-11T01:04:07.603Z,2.56
2019-04-11T01:05:07.572Z,2.53
2019-04-11T01:06:06.825Z,2.46
2019-04-11T01:07:06.913Z,2.41
2019-04-11T01:08:07.270Z,2.41
2019-04-11T01:09:06.774Z,2.23
2019-04-11T01:10:06.764Z,2.37
2019-04-11T01:11:07.763Z,2.34
2019-04-11T01:12:06.737Z,2.23
2019-04-11T01:13:07.154Z,2.23
2019-04-11T01:14:07.749Z,2.26
2019-04-11T01:15:07.052Z,2.26
2019-04-11T01:16:07.079Z,2.22
2019-04-11T01:17:07.811Z,2.26
2019-04-11T01:18:06.708Z,2.28
2019-04-11T01:19:06.709Z,2.16
2019-04-11T01:20:06.993Z,2.12
2019-04-11T01:21:06.653Z,2.20
2019-04-11T01:22:07.654Z,2.06
2019-04-11T01:23:06.865Z,2.08
2019-04-11T01:24:07.217Z,1.98
2019-04-11T01:25:06.600Z,1.94
2019-04-11T01:26:06.601Z,1.97
2019-04-11T01:27:07.700Z,1.98
2019-04-11T01:28:06.834Z,1.91
2019-04-11T01:29:07.143Z,1.82
2019-04-11T01:30:06.534Z,1.75
2019-04-11T01:31:06.540Z,1.82
2019-04-11T01:32:06.607Z,1.75
2019-04-11T01:33:06.704Z,1.80
2019-04-11T01:34:06.593Z,1.78
2019-04-11T01:35:06.902Z,1.80
2019-04-11T01:36:07.024Z,1.73
2019-04-11T01:37:07.255Z,1.69
2019-04-11T01:38:06.447Z,1.65
2019-04-11T01:39:06.434Z,1.71
2019-04-11T01:40:07.678Z,1.65
2019-04-11T01:41:06.638Z,1.58
2019-04-11T01:42:07.000Z,1.64
2019-04-11T01:43:06.391Z,1.54
2019-04-11T01:44:07.549Z,1.51
2019-04-11T01:45:07.344Z,1.57
2019-04-11T01:46:07.483Z,1.50
2019-04-11T01:47:06.699Z,1.47
2019-04-11T01:48:07.062Z,1.54
2019-04-11T01:49:06.326Z,1.52
2019-04-11T01:50:06.315Z,1.58
2019-04-11T01:51:07.451Z,1.52
2019-04-11T01:52:06.574Z,1.61
2019-04-11T01:53:06.813Z,1.55
2019-04-11T01:54:06.270Z,1.42
2019-04-11T01:55:06.273Z,1.50
2019-04-11T01:56:07.196Z,1.50
2019-04-11T01:57:06.230Z,1.40
2019-04-11T01:58:06.639Z,1.34
2019-04-11T01:59:07.019Z,1.36
2019-04-11T02:00:06.216Z,1.34
2019-04-11T02:01:06.410Z,1.50
2019-04-11T02:02:07.414Z,1.60
2019-04-11T02:03:06.757Z,1.68
2019-04-11T02:04:06.155Z,1.58
2019-04-11T02:05:06.163Z,1.73
2019-04-11T02:06:06.133Z,1.75
2019-04-11T02:07:06.650Z,1.60
2019-04-11T02:08:07.104Z,1.64
2019-04-11T02:09:06.136Z,1.64
2019-04-11T02:10:06.083Z,1.58
2019-04-11T02:11:07.181Z,1.57
2019-04-11T02:12:06.064Z,1.55
2019-04-11T02:13:06.048Z,1.46
2019-04-11T02:14:13.616Z,1.42
2019-04-11T02:15:08.144Z,1.47
2019-04-11T02:16:06.039Z,1.47
2019-04-11T02:17:06.436Z,1.52
2019-04-11T02:18:05.994Z,1.40
2019-04-11T02:19:05.982Z,1.32
2019-04-11T02:20:06.994Z,1.40
2019-04-11T02:21:05.979Z,1.28
2019-04-11T02:22:06.305Z,1.34
2019-04-11T02:23:06.760Z,1.34
2019-04-11T02:24:05.927Z,1.25
2019-04-11T02:25:06.055Z,1.25
2019-04-11T02:26:07.060Z,1.22
2019-04-11T02:27:06.503Z,1.24
2019-04-11T02:28:06.556Z,1.16
2019-04-11T02:29:05.866Z,1.19
2019-04-11T02:30:05.880Z,1.24
2019-04-11T02:31:09.078Z,1.26
2019-04-11T02:32:07.452Z,1.15
2019-04-11T02:33:07.226Z,1.19
2019-04-11T02:34:06.550Z,1.07
2019-04-11T02:35:07.828Z,1.16
2019-04-11T02:36:07.952Z,1.03
2019-04-11T02:37:07.075Z,0.98
2019-04-11T02:38:07.638Z,1.04
2019-04-11T02:39:11.745Z,1.01
2019-04-11T02:40:07.596Z,1.08
2019-04-11T02:41:07.961Z,1.00
2019-04-11T02:42:06.545Z,1.10
2019-04-11T02:43:07.645Z,1.03
2019-04-11T02:44:11.629Z,1.08
2019-04-11T02:45:22.432Z,0.92
2019-04-11T02:46:17.274Z,0.88
2019-04-11T02:47:11.944Z,0.86
2019-04-11T02:48:09.327Z,0.89
2019-04-11T02:49:06.091Z,0.94
2019-04-11T02:50:05.915Z,0.86
2019-04-11T02:51:07.490Z,0.89
2019-04-11T02:52:07.150Z,0.83
2019-04-11T02:53:07.171Z,0.86
2019-04-11T02:54:06.905Z,0.76
2019-04-11T02:55:06.208Z,0.83
2019-04-11T02:56:06.252Z,0.89
2019-04-11T02:57:05.765Z,0.85
2019-04-11T02:58:06.283Z,0.80
2019-04-11T02:59:05.618Z,0.76
2019-04-11T03:00:06.479Z,0.78
2019-04-11T03:01:07.426Z,0.75
2019-04-11T03:02:07.098Z,0.83
2019-04-11T03:03:06.195Z,0.71
2019-04-11T03:04:07.306Z,0.80
2019-04-11T03:05:06.988Z,0.76
2019-04-11T03:06:07.095Z,0.72
2019-04-11T03:07:06.036Z,0.65
2019-04-11T03:08:10.592Z,0.71
2019-04-11T03:09:07.030Z,0.68
2019-04-11T03:10:07.102Z,0.60
2019-04-11T03:11:07.517Z,0.48
2019-04-11T03:12:07.211Z,0.45
2019-04-11T03:13:05.388Z,0.34
2019-04-11T03:14:05.390Z,0.42
2019-04-11T03:15:25.751Z,0.43
2019-04-11T03:16:23.729Z,0.49
2019-04-11T03:17:16.377Z,0.49
2019-04-11T03:18:09.407Z,0.49
2019-04-11T03:19:21.144Z,0.36
2019-04-11T03:20:18.643Z,0.39
2019-04-11T03:21:13.059Z,0.39
2019-04-11T03:22:07.853Z,0.41
2019-04-11T03:23:07.963Z,0.46
2019-04-11T03:24:08.234Z,0.43
2019-04-11T03:25:08.412Z,0.45
2019-04-11T03:26:06.926Z,0.48
2019-04-11T03:27:07.137Z,0.36
2019-04-11T03:28:09.595Z,0.38
2019-04-11T03:29:06.895Z,0.38
2019-04-11T03:30:09.909Z,0.34
2019-04-11T03:31:41.653Z,0.27
2019-04-11T03:34:58.803Z,0.33
2019-04-11T03:36:00.022Z,0.33
2019-04-11T03:37:00.754Z,0.41
2019-04-11T03:37:27.278Z,0.28
2019-04-11T03:38:34.804Z,0.31
2019-04-11T03:39:27.817Z,0.16
2019-04-11T03:40:29.100Z,0.16
2019-04-11T03:41:23.634Z,0.18
2019-04-11T03:42:21.909Z,0.20
2019-04-11T03:43:20.852Z,0.16
2019-04-11T03:44:15.852Z,0.24
2019-04-11T03:45:28.963Z,0.20
2019-04-11T03:46:24.972Z,0.33
2019-04-11T03:47:20.654Z,0.31
2019-04-11T03:48:23.597Z,0.16
2019-04-11T03:49:19.616Z,0.20
2019-04-11T03:50:09.323Z,0.16
2019-04-11T03:51:05.995Z,0.13
2019-04-11T03:52:05.801Z,0.07
2019-04-11T03:53:06.569Z,0.09
2019-04-11T03:54:05.189Z,-0.05
2019-04-11T03:55:07.978Z,0.10
2019-04-11T03:56:05.196Z,-0.01
2019-04-11T03:57:05.500Z,0.07
2019-04-11T03:58:06.273Z,0.02
2019-04-11T03:59:06.160Z,0.00
2019-04-11T04:00:06.319Z,0.03
2019-04-11T04:01:08.377Z,-0.01
2019-04-11T04:02:07.698Z,0.10
2019-04-11T04:03:06.175Z,0.07
2019-04-11T04:04:04.791Z,0.09
2019-04-11T04:05:06.714Z,0.03
2019-04-11T04:06:06.675Z,-0.01
2019-04-11T04:07:05.362Z,0.03
2019-04-11T04:08:06.121Z,-0.11
2019-04-11T04:09:04.733Z,-0.09
2019-04-11T04:10:05.184Z,-0.12
2019-04-11T04:11:06.086Z,-0.13
2019-04-11T04:12:05.057Z,-0.18
2019-04-11T04:13:05.507Z,-0.23
2019-04-11T04:14:05.851Z,-0.23
2019-04-11T04:15:08.274Z,-0.16
2019-04-11T04:16:17.083Z,-0.19
2019-04-11T04:17:06.898Z,-0.18
2019-04-11T04:18:05.840Z,-0.19
2019-04-11T04:19:05.293Z,-0.12
2019-04-11T04:20:05.173Z,-0.12
2019-04-11T04:21:06.406Z,0.09
2019-04-11T04:22:05.083Z,0.10
2019-04-11T04:23:05.322Z,0.10
2019-04-11T04:24:06.138Z,0.06
2019-04-11T04:25:04.603Z,0.03
2019-04-11T04:26:06.211Z,0.07
2019-04-11T04:27:06.721Z,0.06
2019-04-11T04:28:05.485Z,0.00
2019-04-11T04:29:04.624Z,0.12
2019-04-11T04:30:05.829Z,0.05
2019-04-11T04:31:04.753Z,0.05
2019-04-11T04:32:05.470Z,0.05
2019-04-11T04:33:05.027Z,0.12
2019-04-11T04:34:04.464Z,0.00
2019-04-11T04:35:07.226Z,-0.09
2019-04-11T04:36:08.858Z,-0.06
2019-04-11T04:37:06.341Z,-0.12
2019-04-11T04:38:05.159Z,-0.22
2019-04-11T04:39:05.749Z,-0.04
2019-04-11T04:40:23.321Z,-0.12
2019-04-11T04:41:16.275Z,-0.13
2019-04-11T04:42:11.374Z,-0.06
2019-04-11T04:43:07.628Z,-0.06
2019-04-11T04:44:05.055Z,-0.09
2019-04-11T04:45:05.160Z,0.05
2019-04-11T04:46:25.037Z,0.13
2019-04-11T04:47:13.944Z,0.10
2019-04-11T04:48:10.921Z,0.09
2019-04-11T04:49:06.760Z,0.15
2019-04-11T04:50:06.197Z,0.36
2019-04-11T04:51:09.001Z,0.30
2019-04-11T04:52:06.115Z,0.25
2019-04-11T04:53:05.169Z,0.27
2019-04-11T04:54:05.778Z,0.27
2019-04-11T04:55:06.064Z,0.30
2019-04-11T04:56:04.208Z,0.28
2019-04-11T04:57:05.069Z,0.18
2019-04-11T04:58:04.940Z,0.15
2019-04-11T04:59:04.991Z,0.13
2019-04-11T05:00:06.594Z,0.18
2019-04-11T05:01:06.187Z,0.13
2019-04-11T05:02:06.162Z,0.06
2019-04-11T05:03:05.539Z,0.06
2019-04-11T05:04:04.818Z,0.06
2019-04-11T05:05:05.916Z,0.09
2019-04-11T05:06:04.331Z,0.10
2019-04-11T05:07:05.262Z,0.06
2019-04-11T05:08:04.065Z,0.28
2019-04-11T05:09:04.400Z,0.30
2019-04-11T05:10:06.176Z,0.42
2019-04-11T05:11:04.553Z,0.38
2019-04-11T05:12:05.418Z,0.53
2019-04-11T05:13:05.545Z,0.60
2019-04-11T05:14:05.063Z,0.60
2019-04-11T05:15:03.998Z,0.53
2019-04-11T05:16:14.514Z,0.79
2019-04-11T05:17:04.963Z,0.72
2019-04-11T05:18:04.217Z,0.68
2019-04-11T05:19:04.517Z,0.62
2019-04-11T05:20:05.068Z,0.51
2019-04-11T05:21:05.208Z,0.57
2019-04-11T05:22:03.909Z,0.52
2019-04-11T05:23:04.312Z,0.61
2019-04-11T05:24:04.078Z,0.58
2019-04-11T05:25:05.075Z,0.58
2019-04-11T05:26:03.864Z,0.60
2019-04-11T05:27:04.135Z,0.46
2019-04-11T05:28:04.377Z,0.61
2019-04-11T05:29:04.920Z,0.57
2019-04-11T05:30:04.910Z,0.62
2019-04-11T05:31:03.816Z,0.70
2019-04-11T05:32:03.796Z,0.79
2019-04-11T05:33:04.029Z,0.88
2019-04-11T05:34:03.792Z,1.04
2019-04-11T05:35:04.822Z,1.06
2019-04-11T05:36:03.974Z,1.18
2019-04-11T05:37:04.005Z,1.25
2019-04-11T05:38:04.820Z,1.34
2019-04-11T05:39:03.713Z,1.33
2019-04-11T05:40:05.106Z,1.36
2019-04-11T05:41:04.271Z,1.50
2019-04-11T05:42:03.684Z,1.44
2019-04-11T05:43:03.908Z,1.46
2019-04-11T05:44:09.800Z,1.39
2019-04-11T05:45:05.393Z,1.58
2019-04-11T05:46:22.909Z,1.51
2019-04-11T05:47:06.518Z,1.62
2019-04-11T05:48:03.617Z,1.52
2019-04-11T05:49:03.875Z,1.54
2019-04-11T05:50:07.545Z,1.61
2019-04-11T05:51:04.656Z,1.68
2019-04-11T05:52:03.982Z,1.65
2019-04-11T05:53:03.973Z,1.64
2019-04-11T05:54:07.500Z,1.68
2019-04-11T05:55:04.789Z,1.76
2019-04-11T05:56:03.747Z,1.78
2019-04-11T05:57:03.512Z,1.75
2019-04-11T05:58:08.572Z,1.80
2019-04-11T05:59:05.352Z,1.79
2019-04-11T06:00:03.586Z,1.91
2019-04-11T06:01:03.548Z,1.89
2019-04-11T06:02:07.250Z,1.82
2019-04-11T06:03:03.837Z,2.02
2019-04-11T06:04:03.429Z,2.37
2019-04-11T06:05:03.577Z,2.82
2019-04-11T06:06:04.752Z,3.50
2019-04-11T06:07:03.408Z,4.37
2019-04-11T06:08:05.412Z,4.89
2019-04-11T06:09:04.025Z,5.55
2019-04-11T06:10:08.508Z,5.93
2019-04-11T06:11:05.915Z,6.25
2019-04-11T06:12:03.378Z,6.76
2019-04-11T06:13:04.501Z,6.90
2019-04-11T06:14:05.659Z,6.94
2019-04-11T06:15:03.936Z,7.34
2019-04-11T06:16:04.496Z,7.47
2019-04-11T06:17:03.280Z,7.72
2019-04-11T06:18:03.273Z,7.81
2019-04-11T06:19:04.020Z,8.14
2019-04-11T06:20:04.053Z,8.39
2019-04-11T06:21:03.952Z,8.73
2019-04-11T06:22:04.471Z,8.66
2019-04-11T06:23:03.810Z,9.21
2019-04-11T06:24:03.573Z,9.82
2019-04-11T06:25:03.606Z,10.17
2019-04-11T06:26:03.180Z,9.91
2019-04-11T06:27:04.036Z,10.24
2019-04-11T06:28:04.116Z,10.52
2019-04-11T06:29:14.686Z,10.56
2019-04-11T06:30:05.415Z,10.68
2019-04-11T06:31:04.522Z,11.11
2019-04-11T06:32:03.543Z,10.68
2019-04-11T06:33:03.100Z,10.47
2019-04-11T06:34:03.084Z,10.66
2019-04-11T06:35:03.990Z,10.62
2019-04-11T06:36:04.075Z,10.73
2019-04-11T06:37:03.573Z,11.10
2019-04-11T06:38:03.036Z,11.36
2019-04-11T06:39:03.043Z,12.01
2019-04-11T06:40:04.088Z,12.19
2019-04-11T06:41:03.027Z,12.42
2019-04-11T06:42:04.140Z,12.57
2019-04-11T06:43:03.605Z,12.45
2019-04-11T06:44:02.978Z,12.75
2019-04-11T06:45:04.010Z,13.15
2019-04-11T06:46:03.041Z,13.27
2019-04-11T06:47:03.850Z,13.52
2019-04-11T06:48:03.188Z,13.56
2019-04-11T06:49:02.914Z,13.88
2019-04-11T06:50:02.928Z,14.27
2019-04-11T06:51:03.887Z,14.35
2019-04-11T06:52:02.900Z,14.17
2019-04-11T06:53:02.866Z,14.39
2019-04-11T06:54:02.853Z,14.46
2019-04-11T06:55:02.843Z,14.37
2019-04-11T06:56:03.602Z,14.65
2019-04-11T06:57:02.844Z,14.24
2019-04-11T06:58:02.807Z,13.67
2019-04-11T06:59:03.866Z,13.81
2019-04-11T07:00:03.026Z,14.37
2019-04-11T07:01:03.529Z,14.71
2019-04-11T07:02:08.847Z,15.09
2019-04-11T07:04:13.493Z,15.61
2019-04-11T07:05:12.559Z,16.07
2019-04-11T07:06:13.342Z,16.31
2019-04-11T07:07:12.964Z,17.06
2019-04-11T07:08:12.519Z,17.18
2019-04-11T07:09:12.554Z,17.20
2019-04-11T07:10:13.678Z,16.85
2019-04-11T07:11:13.491Z,16.45
2019-04-11T07:12:13.381Z,16.23
2019-04-11T07:13:12.478Z,16.27
2019-04-11T07:14:12.534Z,16.30
2019-04-11T07:15:12.442Z,16.56
2019-04-11T07:16:13.334Z,16.92
2019-04-11T07:17:13.691Z,17.28
2019-04-11T07:18:12.422Z,17.89
2019-04-11T07:19:13.450Z,18.39
2019-04-11T07:20:13.021Z,18.49
2019-04-11T07:21:12.369Z,18.61
2019-04-11T07:22:13.207Z,18.74
2019-04-11T07:23:13.518Z,18.91
2019-04-11T07:24:12.332Z,19.70
2019-04-11T07:25:12.467Z,19.90
2019-04-11T07:26:12.319Z,20.38
2019-04-11T07:27:12.302Z,20.49
2019-04-11T07:28:12.304Z,20.91
2019-04-11T07:29:13.020Z,21.21
2019-04-11T07:30:13.310Z,21.72
2019-04-11T07:31:12.814Z,21.99
2019-04-11T07:32:13.441Z,21.42
2019-04-11T07:33:12.760Z,20.64
2019-04-11T07:34:12.220Z,19.68
2019-04-11T07:35:12.955Z,18.84
2019-04-11T07:36:12.454Z,18.80
2019-04-11T07:37:12.648Z,19.42
2019-04-11T07:38:12.174Z,19.87
2019-04-11T07:39:12.861Z,20.09
2019-04-11T07:40:13.121Z,20.65
2019-04-11T07:41:12.780Z,21.21
2019-04-11T07:42:13.674Z,21.26
2019-04-11T07:43:13.906Z,21.75
2019-04-11T07:44:13.123Z,22.01
2019-04-11T07:45:14.088Z,22.23
2019-04-11T07:46:12.666Z,22.04
2019-04-11T07:47:17.209Z,21.54
2019-04-11T07:48:13.059Z,21.13
2019-04-11T07:49:12.170Z,21.53
2019-04-11T07:50:12.033Z,21.79
2019-04-11T07:51:13.169Z,22.31
2019-04-11T07:52:12.010Z,22.43
2019-04-11T07:53:12.892Z,22.87
2019-04-11T07:54:11.985Z,22.22
2019-04-11T07:55:13.094Z,21.79
2019-04-11T07:56:12.047Z,21.85
2019-04-11T07:57:12.924Z,20.23
2019-04-11T07:58:13.066Z,20.28
2019-04-11T07:59:12.900Z,20.87
2019-04-11T08:00:12.809Z,21.26
2019-04-11T08:01:12.644Z,22.07
2019-04-11T08:02:12.407Z,22.68
2019-04-11T08:03:12.329Z,22.84
2019-04-11T08:04:12.786Z,23.22
2019-04-11T08:05:11.877Z,23.40
2019-04-11T08:06:11.852Z,22.75
2019-04-11T08:07:11.838Z,22.97
2019-04-11T08:08:11.825Z,22.72
2019-04-11T08:09:11.814Z,22.07
2019-04-11T08:10:11.821Z,21.34
2019-04-11T08:11:11.792Z,21.20
2019-04-11T08:12:12.828Z,20.86
2019-04-11T08:13:12.357Z,20.16
2019-04-11T08:14:12.526Z,20.06
2019-04-11T08:15:11.800Z,20.30
2019-04-11T08:16:12.576Z,20.83
2019-04-11T08:17:11.729Z,21.63
2019-04-11T08:18:12.494Z,22.27
2019-04-11T08:19:11.701Z,23.19
2019-04-11T08:20:11.690Z,24.19
2019-04-11T08:21:12.132Z,24.02
2019-04-11T08:22:11.667Z,23.80
2019-04-11T08:23:11.735Z,24.20
2019-04-11T08:24:12.055Z,23.90
2019-04-11T08:25:11.667Z,23.17
2019-04-11T08:26:11.730Z,23.43
2019-04-11T08:27:11.615Z,23.87
2019-04-11T08:28:13.839Z,24.61
2019-04-11T08:29:14.051Z,25.07
2019-04-11T08:30:12.717Z,22.57
2019-04-11T08:31:11.589Z,21.81
2019-04-11T08:32:11.796Z,21.92
2019-04-11T08:33:11.547Z,21.74
2019-04-11T08:34:11.536Z,22.17
2019-04-11T08:35:12.255Z,22.90
2019-04-11T08:36:11.528Z,23.62
2019-04-11T08:37:11.594Z,24.47
2019-04-11T08:38:12.004Z,24.68
2019-04-11T08:39:11.482Z,24.38
2019-04-11T08:40:11.545Z,22.62
2019-04-11T08:41:11.495Z,22.38
2019-04-11T08:42:11.445Z,22.68
2019-04-11T08:43:11.435Z,21.75
2019-04-11T08:44:11.961Z,21.26
2019-04-11T08:45:12.340Z,21.74
2019-04-11T08:46:11.421Z,21.88
2019-04-11T08:47:11.953Z,21.32
2019-04-11T08:48:11.379Z,21.17
2019-04-11T08:49:11.367Z,21.42
2019-04-11T08:50:12.306Z,21.14
2019-04-11T08:51:11.466Z,21.79
2019-04-11T08:52:11.808Z,21.92
2019-04-11T08:53:11.330Z,22.20
2019-04-11T08:54:11.308Z,22.19
2019-04-11T08:55:12.349Z,22.89
2019-04-11T08:56:12.446Z,23.12
2019-04-11T08:57:11.762Z,23.07
2019-04-11T08:58:12.062Z,22.93
2019-04-11T08:59:11.464Z,22.67
2019-04-11T09:00:11.243Z,22.83
2019-04-11T09:01:11.599Z,23.58
2019-04-11T09:02:11.241Z,23.71
2019-04-11T09:03:11.372Z,24.05
2019-04-11T09:04:13.430Z,24.31
2019-04-11T09:05:15.130Z,24.52
2019-04-11T09:06:12.531Z,25.12
2019-04-11T09:07:11.785Z,25.69
2019-04-11T09:08:11.156Z,25.83
2019-04-11T09:09:11.236Z,26.04
2019-04-11T09:10:11.600Z,25.80
2019-04-11T09:11:11.121Z,25.80
2019-04-11T09:12:12.086Z,25.91
2019-04-11T09:13:11.202Z,25.99
2019-04-11T09:14:11.599Z,26.32
2019-04-11T09:15:11.074Z,25.52
2019-04-11T09:16:11.067Z,25.37
2019-04-11T09:17:12.229Z,25.15
2019-04-11T09:18:13.712Z,24.64
2019-04-11T09:19:11.031Z,24.63
2019-04-11T09:20:11.538Z,24.64
2019-04-11T09:21:11.932Z,24.88
2019-04-11T09:22:11.103Z,24.56
2019-04-11T09:23:11.327Z,24.85
2019-04-11T09:24:10.977Z,25.05
2019-04-11T09:25:11.111Z,24.92
2019-04-11T09:26:11.801Z,23.46
2019-04-11T09:27:12.074Z,22.97
2019-04-11T09:28:11.354Z,23.27
2019-04-11T09:29:10.919Z,23.67
2019-04-11T09:30:13.336Z,23.75
2019-04-11T09:31:13.648Z,23.24
2019-04-11T09:32:11.855Z,23.12
2019-04-11T09:33:10.996Z,23.38
2019-04-11T09:34:11.286Z,23.87
2019-04-11T09:35:10.851Z,23.53
2019-04-11T09:36:11.378Z,23.71
2019-04-11T09:37:14.000Z,24.39
2019-04-11T09:38:10.834Z,23.80
2019-04-11T09:39:10.849Z,24.42
2019-04-11T09:40:11.865Z,24.50
2019-04-11T09:41:10.782Z,22.84
2019-04-11T09:42:11.679Z,22.68
2019-04-11T09:43:11.475Z,22.87
2019-04-11T09:44:10.753Z,22.72
2019-04-11T09:45:11.055Z,23.31
2019-04-11T09:46:10.726Z,23.58
2019-04-11T09:47:11.208Z,24.04
2019-04-11T09:48:14.796Z,24.44
2019-04-11T09:49:12.370Z,24.45
2019-04-11T09:50:11.835Z,24.29
2019-04-11T09:51:11.436Z,24.12
2019-04-11T09:52:10.660Z,24.57
2019-04-11T09:53:10.665Z,23.95
2019-04-11T09:54:11.950Z,23.43
2019-04-11T09:55:10.759Z,23.82
2019-04-11T09:56:10.974Z,24.12
2019-04-11T09:57:10.603Z,24.31
2019-04-11T09:58:11.156Z,24.95
2019-04-11T09:59:10.579Z,24.85
2019-04-11T10:00:10.567Z,24.85
2019-04-11T10:01:10.564Z,25.06
2019-04-11T10:02:10.550Z,24.67
2019-04-11T10:03:10.863Z,24.45
2019-04-11T10:04:10.842Z,24.38
2019-04-11T10:05:10.539Z,24.35
2019-04-11T10:06:12.246Z,24.94
2019-04-11T10:07:11.142Z,24.56
2019-04-11T10:08:10.705Z,23.68
2019-04-11T10:09:11.489Z,23.45
2019-04-11T10:10:10.808Z,23.53
2019-04-11T10:11:10.444Z,24.02
2019-04-11T10:12:11.648Z,23.87
2019-04-11T10:13:10.845Z,24.59
2019-04-11T10:14:10.433Z,24.98
2019-04-11T10:15:11.433Z,23.92
2019-04-11T10:16:11.536Z,23.20
2019-04-11T10:17:10.699Z,24.47
2019-04-11T10:18:20.147Z,24.80
2019-04-11T10:19:11.711Z,25.16
2019-04-11T10:20:10.694Z,25.42
2019-04-11T10:21:10.335Z,25.59
2019-04-11T10:22:11.048Z,25.68
2019-04-11T10:23:10.448Z,25.64
2019-04-11T10:24:11.380Z,25.32
2019-04-11T10:25:10.681Z,25.75
2019-04-11T10:26:10.280Z,25.44
2019-04-11T10:27:10.266Z,25.53
2019-04-11T10:28:11.246Z,25.13
2019-04-11T10:29:11.385Z,24.97
2019-04-11T10:30:10.251Z,25.16
2019-04-11T10:31:10.611Z,25.15
2019-04-11T10:32:10.756Z,23.70
2019-04-11T10:33:10.829Z,23.24
2019-04-11T10:34:11.208Z,22.84
2019-04-11T10:35:10.260Z,20.74
2019-04-11T10:36:10.514Z,20.54
2019-04-11T10:37:10.160Z,21.82
2019-04-11T10:38:10.150Z,22.27
2019-04-11T10:39:11.118Z,22.41
2019-04-11T10:40:10.222Z,23.09
2019-04-11T10:41:10.111Z,22.62
2019-04-11T10:42:10.578Z,21.94
2019-04-11T10:43:10.088Z,21.50
2019-04-11T10:44:10.075Z,20.76
2019-04-11T10:45:10.163Z,20.49
2019-04-11T10:46:11.034Z,19.83
2019-04-11T10:47:10.075Z,19.13
2019-04-11T10:48:10.030Z,18.64
2019-04-11T10:49:10.033Z,17.92
2019-04-11T10:50:11.063Z,17.62
2019-04-11T10:51:10.832Z,17.06
2019-04-11T10:52:09.993Z,16.96
2019-04-11T10:53:11.001Z,16.49
2019-04-11T10:54:09.965Z,16.22
2019-04-11T10:55:09.951Z,16.35
2019-04-11T10:56:10.671Z,16.38
2019-04-11T10:57:10.008Z,16.71
2019-04-11T10:58:10.857Z,18.06
2019-04-11T10:59:10.177Z,19.35
2019-04-11T11:00:09.897Z,20.46
2019-04-11T11:01:09.899Z,20.95
2019-04-11T11:02:10.728Z,21.39
2019-04-11T11:03:09.865Z,20.47
2019-04-11T11:04:09.847Z,19.54
2019-04-11T11:05:09.836Z,18.77
2019-04-11T11:06:09.844Z,19.20
2019-04-11T11:07:11.176Z,19.69
2019-04-11T11:08:09.974Z,20.33
2019-04-11T11:09:10.143Z,20.31
2019-04-11T11:10:09.781Z,21.38
2019-04-11T11:11:12.612Z,21.94
2019-04-11T11:12:10.581Z,22.50
2019-04-11T11:13:09.754Z,21.76
2019-04-11T11:14:10.217Z,21.82
2019-04-11T11:15:09.838Z,21.74
2019-04-11T11:16:09.751Z,21.36
2019-04-11T11:17:10.783Z,20.87
2019-04-11T11:19:01.949Z,20.41
2019-04-11T11:19:39.018Z,19.75
2019-04-11T11:20:21.525Z,18.58
2019-04-11T11:21:11.329Z,17.70
2019-04-11T11:22:10.493Z,17.40
2019-04-11T11:23:11.512Z,18.29
2019-04-11T11:24:10.790Z,19.20
2019-04-11T11:25:12.713Z,20.08
2019-04-11T11:26:10.603Z,20.65
2019-04-11T11:27:09.616Z,20.35
2019-04-11T11:28:09.627Z,20.21
2019-04-11T11:29:13.623Z,19.80
2019-04-11T11:30:10.856Z,20.41
2019-04-11T11:31:09.540Z,21.29
2019-04-11T11:32:09.545Z,22.14
2019-04-11T11:33:09.995Z,22.19
2019-04-11T11:34:14.641Z,21.38
2019-04-11T11:35:10.777Z,20.46
2019-04-11T11:36:11.018Z,21.50
2019-04-11T11:37:09.493Z,22.60
2019-04-11T11:38:09.473Z,23.34
2019-04-11T11:39:09.448Z,23.94
2019-04-11T11:40:14.564Z,24.49
2019-04-11T11:41:10.426Z,24.53
2019-04-11T11:42:10.316Z,24.22
2019-04-11T11:43:10.584Z,23.87
2019-04-11T11:44:09.754Z,24.17
2019-04-11T11:45:09.381Z,24.14
2019-04-11T11:46:10.046Z,24.59
2019-04-11T11:47:09.919Z,24.95
2019-04-11T11:48:14.768Z,24.53
2019-04-11T11:49:10.332Z,24.63
2019-04-11T11:50:15.553Z,24.67
2019-04-11T11:51:10.904Z,22.80
2019-04-11T11:52:09.326Z,21.44
2019-04-11T11:53:11.936Z,20.96
2019-04-11T11:54:09.279Z,20.56
2019-04-11T11:55:10.261Z,20.49
2019-04-11T11:56:09.549Z,21.41
2019-04-11T11:57:09.242Z,22.01
2019-04-11T11:58:09.252Z,22.38
2019-04-11T11:59:09.220Z,22.86
2019-04-11T12:00:09.209Z,23.29
2019-04-11T12:01:09.586Z,23.72
2019-04-11T12:02:10.573Z,23.97
2019-04-11T12:03:09.192Z,23.87
2019-04-11T12:04:09.164Z,23.02
2019-04-11T12:05:13.297Z,22.02
2019-04-11T12:06:10.142Z,21.97
2019-04-11T12:07:09.409Z,21.81
2019-04-11T12:08:13.320Z,22.44
2019-04-11T12:09:10.109Z,22.54
2019-04-11T12:10:09.155Z,22.39
2019-04-11T12:11:10.124Z,22.68
2019-04-11T12:12:09.096Z,23.07
2019-04-11T12:13:11.612Z,22.60
2019-04-11T12:14:09.728Z,20.96
2019-04-11T12:15:09.789Z,21.02
2019-04-11T12:16:10.012Z,21.30
2019-04-11T12:17:10.082Z,21.66
2019-04-11T12:18:09.884Z,22.13
2019-04-11T12:19:08.996Z,22.13
2019-04-11T12:20:12.675Z,22.19
2019-04-11T12:21:09.968Z,22.20
2019-04-11T12:22:08.960Z,22.34
2019-04-11T12:23:08.968Z,22.80
2019-04-11T12:24:09.700Z,23.05
2019-04-11T12:25:09.227Z,23.58
2019-04-11T12:26:11.022Z,22.97
2019-04-11T12:27:10.233Z,23.01
2019-04-11T12:28:13.260Z,23.27
2019-04-11T12:29:10.225Z,23.01
2019-04-11T12:30:10.628Z,21.38
2019-04-11T12:31:09.290Z,20.83
2019-04-11T12:32:08.844Z,20.71
2019-04-11T12:33:08.974Z,20.95
2019-04-11T12:34:08.821Z,21.42
2019-04-11T12:35:08.810Z,21.60
2019-04-11T12:36:09.821Z,22.10
2019-04-11T12:37:08.921Z,22.74
2019-04-11T12:38:08.797Z,23.04
2019-04-11T12:39:08.764Z,23.42
2019-04-11T12:40:09.752Z,23.39
2019-04-11T12:41:08.756Z,23.08
2019-04-11T12:42:08.731Z,22.39
2019-04-11T12:43:08.742Z,21.57
2019-04-11T12:44:08.705Z,20.65
2019-04-11T12:45:08.698Z,19.86
2019-04-11T12:46:08.683Z,18.70
2019-04-11T12:47:08.687Z,17.64
2019-04-11T12:48:11.964Z,16.70
2019-04-11T12:49:08.678Z,16.27
2019-04-11T12:50:08.640Z,16.38
2019-04-11T12:51:08.629Z,16.81
2019-04-11T12:52:08.614Z,18.00
2019-04-11T12:53:08.675Z,18.83
2019-04-11T12:54:08.615Z,19.94
2019-04-11T12:55:08.583Z,20.69
2019-04-11T12:56:08.567Z,21.53
2019-04-11T12:57:08.561Z,21.75
2019-04-11T12:58:08.544Z,22.29
2019-04-11T12:59:08.551Z,22.23
2019-04-11T13:00:08.523Z,22.74
2019-04-11T13:01:08.513Z,22.80
2019-04-11T13:02:08.499Z,23.27
2019-04-11T13:03:15.521Z,22.20
2019-04-11T13:04:08.494Z,21.42
2019-04-11T13:05:08.463Z,20.68
2019-04-11T13:06:08.452Z,19.72
2019-04-11T13:07:08.443Z,18.87